Decoded Metar for LFST (STRASSBOURG in FRANCE) (IATA:SXB) | Meteo·Mobile Aviation Weather
aviador You're here:

LFST Decoded Metar

STRASSBOURG in FRANCE
Report Time2020-02-23 10:30:00
UTC Time2020-02-23 10:50:01
Flight Rules vfr VFR
Wind210° at 19 kt
W.Decomp.*RWY 23: 17.9 kt HW 6.5 kt LCW
Visibility9999 m
Phenomena:N/A
Clouds:Overcast 033 Hf
Expected CloudBase > 2,400 ft AGL from Temp-Dew spread
Ceiling3,300 ft
Temp13°C (ISA -1)
Dew Point07°C (67% RH)
AAT5.5°C
QNH1023 hPa
Density Alt187 ft
Elevation505 ft
Report Wrong Elevation
Raw Report
LFST 231030Z AUTO 21019KT 9999 OVC033 13/07 Q1023 BECMG
19015G25KT=

Extra information for LFST:More info

Metar Taf Metar & Taf Last 4 Metars F.Rules Stats Wind Profile Meteogram Temp Stats Airport Information Weather charts Add Link Nearby VenuesMetar ALERT Operation Metar Decoded Social comments